createdAt,value
2023-04-18T00:01:43.144Z,8.55
2023-04-18T00:04:51.347Z,8.53
2023-04-18T00:08:13.687Z,8.50
2023-04-18T00:11:34.077Z,8.49
2023-04-18T00:14:38.086Z,8.48
2023-04-18T00:18:14.360Z,8.46
2023-04-18T00:21:40.385Z,8.43
2023-04-18T00:25:09.584Z,8.41
2023-04-18T00:28:33.976Z,8.40
2023-04-18T00:32:11.831Z,8.41
2023-04-18T00:35:39.448Z,8.38
2023-04-18T00:39:01.686Z,8.38
2023-04-18T00:42:33.467Z,8.39
2023-04-18T00:45:39.613Z,8.38
2023-04-18T00:49:11.071Z,8.38
2023-04-18T00:52:39.868Z,8.41
2023-04-18T00:56:06.304Z,8.40
2023-04-18T00:59:33.654Z,8.40
2023-04-18T01:02:53.393Z,8.40
2023-04-18T01:06:33.084Z,8.39
2023-04-18T01:09:58.914Z,8.40
2023-04-18T01:13:50.024Z,8.40
2023-04-18T01:17:06.632Z,8.40
2023-04-18T01:24:30.446Z,8.39
2023-04-18T01:27:34.236Z,8.37
2023-04-18T01:31:05.402Z,8.35
2023-04-18T01:34:20.560Z,8.35
2023-04-18T01:37:39.933Z,8.35
2023-04-18T01:41:14.404Z,8.34
2023-04-18T01:44:34.601Z,8.33
2023-04-18T01:47:43.086Z,8.34
2023-04-18T01:51:04.493Z,8.35
2023-04-18T01:54:43.624Z,8.34
2023-04-18T01:58:04.323Z,8.32
2023-04-18T02:01:22.997Z,8.31
2023-04-18T02:05:03.657Z,8.30
2023-04-18T02:08:18.207Z,8.31
2023-04-18T02:11:37.483Z,8.32
2023-04-18T02:15:02.590Z,8.32
2023-04-18T02:18:11.515Z,8.34
2023-04-18T02:21:20.243Z,8.34
2023-04-18T02:24:42.101Z,8.33
2023-04-18T02:27:56.055Z,8.32
2023-04-18T02:31:35.874Z,8.30
2023-04-18T02:34:58.001Z,8.31
2023-04-18T02:38:21.671Z,8.30
2023-04-18T02:41:40.741Z,8.28
2023-04-18T02:45:07.074Z,8.27
2023-04-18T02:48:30.854Z,8.25
2023-04-18T02:51:39.572Z,8.22
2023-04-18T02:55:00.425Z,8.20
2023-04-18T02:58:19.282Z,8.20
2023-04-18T03:01:48.407Z,8.17
2023-04-18T03:05:10.748Z,8.16
2023-04-18T03:08:26.979Z,8.18
2023-04-18T03:11:32.320Z,8.14
2023-04-18T03:14:56.620Z,8.13
2023-04-18T03:18:13.627Z,8.12
2023-04-18T03:21:22.554Z,8.10
2023-04-18T03:24:50.833Z,8.10
2023-04-18T03:27:53.099Z,8.08
2023-04-18T03:31:10.250Z,8.08
2023-04-18T03:34:22.935Z,8.10
2023-04-18T03:37:38.418Z,8.11
2023-04-18T03:41:06.406Z,8.10
2023-04-18T03:44:26.787Z,8.08
2023-04-18T03:47:58.330Z,8.06
2023-04-18T03:51:29.900Z,8.07
2023-04-18T03:54:47.125Z,8.05
2023-04-18T03:58:16.738Z,8.05
2023-04-18T04:01:46.664Z,8.03
2023-04-18T04:05:05.157Z,8.02
2023-04-18T04:08:28.236Z,8.04
2023-04-18T04:12:00.564Z,8.05
2023-04-18T04:15:12.956Z,8.04
2023-04-18T04:18:31.916Z,8.01
2023-04-18T04:21:55.859Z,8.00
2023-04-18T04:25:14.055Z,7.97
2023-04-18T04:28:28.909Z,7.98
2023-04-18T04:31:55.786Z,7.96
2023-04-18T04:34:52.295Z,7.96
2023-04-18T04:37:49.441Z,7.97
2023-04-18T04:40:44.338Z,7.99
2023-04-18T04:43:47.172Z,8.03
2023-04-18T04:46:40.599Z,8.05
2023-04-18T04:49:30.975Z,8.08
2023-04-18T04:52:12.976Z,8.09
2023-04-18T04:54:56.200Z,8.12
2023-04-18T04:57:40.787Z,8.14
2023-04-18T05:00:42.515Z,8.17
2023-04-18T05:03:36.885Z,8.19
2023-04-18T05:06:40.237Z,8.22
2023-04-18T05:09:24.249Z,8.24
2023-04-18T05:12:07.578Z,8.27
2023-04-18T05:14:55.711Z,8.28
2023-04-18T05:17:55.059Z,8.29
2023-04-18T05:21:03.130Z,8.32
2023-04-18T05:23:58.836Z,8.33
2023-04-18T05:27:06.234Z,8.33
2023-04-18T05:29:53.039Z,8.37
2023-04-18T05:32:46.209Z,8.42
2023-04-18T05:35:30.240Z,8.43
2023-04-18T05:38:20.232Z,8.44
2023-04-18T05:41:12.361Z,8.45
2023-04-18T05:44:16.839Z,8.49
2023-04-18T05:47:11.177Z,8.52
2023-04-18T05:50:17.334Z,8.54
2023-04-18T05:52:59.457Z,8.57
2023-04-18T05:55:46.757Z,8.60
2023-04-18T05:58:38.684Z,8.63
2023-04-18T06:01:18.968Z,8.67
2023-04-18T06:04:14.381Z,8.69
2023-04-18T06:07:06.992Z,8.77
2023-04-18T06:10:16.682Z,8.81
2023-04-18T06:13:13.683Z,8.82
2023-04-18T06:16:06.953Z,8.85
2023-04-18T06:19:06.265Z,8.88
2023-04-18T06:21:53.355Z,8.88
2023-04-18T06:24:44.986Z,8.89
2023-04-18T06:27:50.123Z,8.90
2023-04-18T06:30:37.034Z,8.90
2023-04-18T06:33:32.342Z,8.89
2023-04-18T06:36:14.120Z,8.87
2023-04-18T06:38:52.987Z,8.85
2023-04-18T06:41:38.746Z,8.85
2023-04-18T06:44:32.211Z,8.88
2023-04-18T06:47:31.872Z,8.87
2023-04-18T06:50:23.742Z,8.82
2023-04-18T06:53:12.430Z,8.81
2023-04-18T06:55:55.923Z,8.82
2023-04-18T06:58:42.941Z,8.83
2023-04-18T07:01:25.893Z,8.81
2023-04-18T07:04:14.499Z,8.80
2023-04-18T07:07:10.130Z,8.79
2023-04-18T07:10:09.130Z,8.75
2023-04-18T07:12:48.073Z,8.76
2023-04-18T07:15:41.098Z,8.73
2023-04-18T07:18:34.254Z,8.72
2023-04-18T07:21:26.821Z,8.73
2023-04-18T07:24:27.240Z,8.74
2023-04-18T07:27:10.560Z,8.79
2023-04-18T07:29:59.103Z,8.82
2023-04-18T07:32:53.420Z,8.84
2023-04-18T07:35:46.956Z,8.84
2023-04-18T07:38:53.014Z,8.86
2023-04-18T07:41:33.168Z,8.90
2023-04-18T07:44:29.606Z,8.92
2023-04-18T07:47:29.416Z,8.96
2023-04-18T07:50:24.967Z,8.97
2023-04-18T07:53:43.697Z,9.01
2023-04-18T07:56:52.004Z,9.06
2023-04-18T07:59:57.043Z,9.10
2023-04-18T08:03:07.696Z,9.15
2023-04-18T08:06:17.044Z,9.12
2023-04-18T08:09:14.327Z,9.15
2023-04-18T08:11:56.914Z,9.18
2023-04-18T08:14:51.092Z,9.20
2023-04-18T08:17:56.019Z,9.24
2023-04-18T08:20:35.371Z,9.29
2023-04-18T08:23:31.695Z,9.34
2023-04-18T08:26:15.536Z,9.41
2023-04-18T08:28:53.430Z,9.50
2023-04-18T08:31:38.060Z,9.58
2023-04-18T08:34:38.001Z,9.63
2023-04-18T08:37:21.947Z,9.63
2023-04-18T08:40:25.150Z,9.64
2023-04-18T08:43:10.311Z,9.66
2023-04-18T08:45:52.832Z,9.66
2023-04-18T08:48:45.364Z,9.66
2023-04-18T08:51:44.153Z,9.67
2023-04-18T08:54:44.273Z,9.70
2023-04-18T08:57:56.506Z,9.71
2023-04-18T09:00:46.355Z,9.75
2023-04-18T09:04:08.933Z,9.79
2023-04-18T09:06:52.975Z,9.79
2023-04-18T09:09:49.276Z,9.78
2023-04-18T09:12:47.964Z,9.75
2023-04-18T09:15:45.837Z,9.73
2023-04-18T09:18:43.358Z,9.74
2023-04-18T09:21:57.748Z,9.74
2023-04-18T09:24:56.862Z,9.75
2023-04-18T09:27:47.752Z,9.76
2023-04-18T09:30:47.659Z,9.75
2023-04-18T09:33:44.961Z,9.75
2023-04-18T09:36:35.448Z,9.73
2023-04-18T09:39:45.702Z,9.72
2023-04-18T09:42:39.964Z,9.71
2023-04-18T09:45:58.131Z,9.72
2023-04-18T09:49:12.964Z,9.73
2023-04-18T09:52:36.334Z,9.77
2023-04-18T09:56:07.279Z,9.82
2023-04-18T09:59:43.541Z,9.87
2023-04-18T10:03:12.176Z,9.93
2023-04-18T10:06:37.754Z,9.99
2023-04-18T10:10:05.027Z,10.03
2023-04-18T10:13:17.881Z,10.07
2023-04-18T10:16:50.501Z,10.12
2023-04-18T10:20:11.913Z,10.15
2023-04-18T10:23:56.186Z,10.20
2023-04-18T10:27:15.679Z,10.24
2023-04-18T10:30:37.497Z,10.22
2023-04-18T10:34:18.479Z,10.24
2023-04-18T10:37:35.279Z,10.31
2023-04-18T10:40:49.534Z,10.36
2023-04-18T10:44:38.118Z,10.44
2023-04-18T10:48:16.320Z,10.55
2023-04-18T10:51:59.124Z,10.59
2023-04-18T11:03:10.622Z,10.80
2023-04-18T11:06:25.942Z,10.86
2023-04-18T11:09:40.585Z,10.89
2023-04-18T11:12:42.566Z,10.96
2023-04-18T11:15:36.031Z,10.99
2023-04-18T11:18:54.993Z,11.01
2023-04-18T11:22:07.816Z,11.04
2023-04-18T11:25:00.791Z,11.02
2023-04-18T11:28:13.684Z,11.02
2023-04-18T11:31:18.521Z,11.03
2023-04-18T11:34:21.204Z,11.03
2023-04-18T11:37:48.660Z,11.04
2023-04-18T11:41:15.528Z,11.05
2023-04-18T11:44:11.987Z,11.06
2023-04-18T11:47:41.957Z,11.08
2023-04-18T11:50:39.322Z,11.11
2023-04-18T11:53:50.396Z,11.11
2023-04-18T11:56:39.559Z,11.15
2023-04-18T11:59:38.863Z,11.18
2023-04-18T12:03:06.234Z,11.18
2023-04-18T12:05:58.548Z,11.18
2023-04-18T12:09:28.628Z,11.21
2023-04-18T12:12:38.415Z,11.26
2023-04-18T12:15:23.511Z,11.32
2023-04-18T12:18:20.239Z,11.40
2023-04-18T12:21:15.244Z,11.48
2023-04-18T12:23:59.591Z,11.54
2023-04-18T12:27:12.105Z,11.58
2023-04-18T12:30:04.241Z,11.61
2023-04-18T12:33:15.826Z,11.64
2023-04-18T12:36:10.666Z,11.64
2023-04-18T12:39:04.910Z,11.67
2023-04-18T12:42:06.468Z,11.68
2023-04-18T12:45:13.543Z,11.71
2023-04-18T12:48:13.363Z,11.75
2023-04-18T12:51:25.173Z,11.80
2023-04-18T12:54:15.353Z,11.85
2023-04-18T12:57:32.047Z,11.89
2023-04-18T13:00:30.372Z,11.92
2023-04-18T13:03:41.912Z,11.95
2023-04-18T13:06:54.562Z,11.99
2023-04-18T13:09:51.067Z,11.98
2023-04-18T13:12:49.695Z,11.97
2023-04-18T13:15:55.048Z,11.99
2023-04-18T13:18:45.493Z,12.07
2023-04-18T13:21:49.478Z,12.16
2023-04-18T13:24:38.351Z,12.34
2023-04-18T13:27:29.696Z,12.51
2023-04-18T13:30:15.893Z,12.63
2023-04-18T13:33:07.958Z,12.80
2023-04-18T13:36:08.229Z,12.99
2023-04-18T13:39:07.647Z,13.17
2023-04-18T13:41:56.187Z,13.31
2023-04-18T13:44:50.777Z,13.38
2023-04-18T13:47:30.566Z,13.44
2023-04-18T13:50:24.529Z,13.43
2023-04-18T13:53:16.320Z,13.40
2023-04-18T13:55:56.677Z,13.39
2023-04-18T13:59:10.280Z,13.42
2023-04-18T14:01:46.908Z,13.44
2023-04-18T14:04:27.655Z,13.42
2023-04-18T14:07:19.789Z,13.37
2023-04-18T14:10:16.020Z,13.34
2023-04-18T14:13:12.656Z,13.34
2023-04-18T14:16:00.855Z,13.33
2023-04-18T14:18:54.463Z,13.29
2023-04-18T14:21:58.382Z,13.27
2023-04-18T14:24:52.658Z,13.26
2023-04-18T14:27:36.351Z,13.25
2023-04-18T14:30:24.436Z,13.30
2023-04-18T14:33:27.424Z,13.33
2023-04-18T14:36:18.230Z,13.36
2023-04-18T14:39:13.451Z,13.42
2023-04-18T14:41:56.144Z,13.47
2023-04-18T14:44:48.997Z,13.51
2023-04-18T14:47:46.607Z,13.53
2023-04-18T14:50:34.500Z,13.58
2023-04-18T14:53:30.005Z,13.59
2023-04-18T14:56:15.998Z,13.62
2023-04-18T14:58:55.734Z,13.63
2023-04-18T15:01:57.538Z,13.64
2023-04-18T15:04:35.080Z,13.65
2023-04-18T15:07:15.251Z,13.63
2023-04-18T15:09:58.260Z,13.59
2023-04-18T15:12:39.538Z,13.52
2023-04-18T15:15:40.112Z,13.46
2023-04-18T15:18:30.368Z,13.44
2023-04-18T15:21:19.014Z,13.42
2023-04-18T15:23:52.613Z,13.35
2023-04-18T15:26:31.694Z,13.30
2023-04-18T15:29:12.835Z,13.25
2023-04-18T15:31:49.473Z,13.20
2023-04-18T15:34:31.381Z,13.15
2023-04-18T15:37:05.807Z,13.12
2023-04-18T15:39:40.134Z,13.09
2023-04-18T15:42:28.168Z,13.07
2023-04-18T15:45:12.709Z,13.04
2023-04-18T15:47:51.714Z,13.00
2023-04-18T15:50:39.269Z,12.99
2023-04-18T15:53:16.653Z,12.98
2023-04-18T15:56:08.070Z,12.95
2023-04-18T15:58:56.210Z,12.91
2023-04-18T16:01:49.287Z,12.88
2023-04-18T16:04:34.261Z,12.85
2023-04-18T16:07:24.090Z,12.82
2023-04-18T16:10:20.668Z,12.80
2023-04-18T16:13:03.354Z,12.78
2023-04-18T16:15:54.539Z,12.78
2023-04-18T16:18:32.478Z,12.78
2023-04-18T16:21:10.896Z,12.78
2023-04-18T16:24:11.808Z,12.77
2023-04-18T16:27:01.301Z,12.76
2023-04-18T16:29:38.903Z,12.75
2023-04-18T16:32:24.405Z,12.73
2023-04-18T16:35:17.936Z,12.72
2023-04-18T16:38:01.992Z,12.73
2023-04-18T16:41:01.746Z,12.72
2023-04-18T16:43:43.896Z,12.71
2023-04-18T16:46:25.622Z,12.68
2023-04-18T16:49:16.391Z,12.66
2023-04-18T16:52:10.365Z,12.62
2023-04-18T16:55:21.863Z,12.58
2023-04-18T16:58:04.469Z,12.55
2023-04-18T17:01:03.248Z,12.50
2023-04-18T17:03:56.596Z,12.47
2023-04-18T17:06:41.795Z,12.43
2023-04-18T17:09:33.812Z,12.40
2023-04-18T17:12:31.885Z,12.36
2023-04-18T17:15:43.064Z,12.33
2023-04-18T17:18:30.901Z,12.31
2023-04-18T17:21:24.875Z,12.27
2023-04-18T17:24:23.258Z,12.24
2023-04-18T17:27:15.084Z,12.23
2023-04-18T17:29:59.336Z,12.21
2023-04-18T17:32:46.186Z,12.19
2023-04-18T17:35:50.561Z,12.17
2023-04-18T17:38:48.958Z,12.13
2023-04-18T17:41:55.508Z,12.11
2023-04-18T17:44:57.788Z,12.09
2023-04-18T17:47:42.602Z,12.07
2023-04-18T17:50:58.022Z,12.05
2023-04-18T17:54:01.027Z,12.04
2023-04-18T17:56:51.200Z,12.04
2023-04-18T17:59:37.846Z,12.03
2023-04-18T18:02:44.917Z,12.03
2023-04-18T18:05:40.922Z,12.02
2023-04-18T18:08:43.197Z,12.00
2023-04-18T18:11:53.981Z,11.98
2023-04-18T18:15:05.783Z,11.95
2023-04-18T18:18:14.648Z,11.93
2023-04-18T18:21:11.588Z,11.90
2023-04-18T18:24:36.019Z,11.88
2023-04-18T18:27:46.889Z,11.86
2023-04-18T18:30:45.696Z,11.85
2023-04-18T18:33:41.297Z,11.84
2023-04-18T18:36:54.216Z,11.83
2023-04-18T18:39:58.748Z,11.81
2023-04-18T18:42:57.730Z,11.79
2023-04-18T18:45:47.622Z,11.76
2023-04-18T18:48:58.082Z,11.73
2023-04-18T18:51:54.413Z,11.69
2023-04-18T18:54:37.532Z,11.67
2023-04-18T18:57:37.955Z,11.64
2023-04-18T19:00:36.442Z,11.60
2023-04-18T19:03:22.849Z,11.58
2023-04-18T19:06:25.420Z,11.57
2023-04-18T19:09:09.978Z,11.55
2023-04-18T19:12:08.768Z,11.52
2023-04-18T19:15:03.277Z,11.51
2023-04-18T19:17:49.066Z,11.50
2023-04-18T19:20:49.572Z,11.49
2023-04-18T19:23:42.431Z,11.47
2023-04-18T19:26:45.308Z,11.46
2023-04-18T19:29:36.418Z,11.44
2023-04-18T19:32:27.842Z,11.43
2023-04-18T19:35:24.330Z,11.40
2023-04-18T19:38:22.557Z,11.38
2023-04-18T19:41:37.413Z,11.37
2023-04-18T19:44:29.346Z,11.35
2023-04-18T19:47:33.413Z,11.34
2023-04-18T19:50:34.396Z,11.33
2023-04-18T19:53:15.885Z,11.33
2023-04-18T19:55:59.416Z,11.32
2023-04-18T19:58:58.003Z,11.31
2023-04-18T20:01:46.756Z,11.31
2023-04-18T20:04:38.426Z,11.29
2023-04-18T20:07:49.944Z,11.28
2023-04-18T20:10:41.483Z,11.27
2023-04-18T20:13:24.707Z,11.25
2023-04-18T20:16:09.120Z,11.24
2023-04-18T20:19:04.162Z,11.21
2023-04-18T20:21:53.019Z,11.18
2023-04-18T20:24:42.900Z,11.16
2023-04-18T20:27:37.800Z,11.15
2023-04-18T20:30:51.369Z,11.14
2023-04-18T20:33:48.691Z,11.11
2023-04-18T20:36:26.087Z,11.08
2023-04-18T20:39:19.747Z,11.08
2023-04-18T20:42:24.074Z,11.06
2023-04-18T20:45:27.978Z,11.04
2023-04-18T20:48:33.316Z,11.03
2023-04-18T20:51:37.249Z,11.00
2023-04-18T20:54:23.322Z,10.97
2023-04-18T20:57:30.207Z,10.91
2023-04-18T21:00:30.528Z,10.88
2023-04-18T21:03:31.287Z,10.84
2023-04-18T21:06:22.196Z,10.82
2023-04-18T21:09:26.588Z,10.80
2023-04-18T21:12:21.794Z,10.79
2023-04-18T21:15:22.637Z,10.77
2023-04-18T21:18:29.952Z,10.76
2023-04-18T21:21:19.905Z,10.74
2023-04-18T21:24:24.837Z,10.73
2023-04-18T21:27:16.971Z,10.71
2023-04-18T21:30:09.355Z,10.69
2023-04-18T21:33:09.536Z,10.65
2023-04-18T21:36:05.147Z,10.60
2023-04-18T21:39:20.756Z,10.57
2023-04-18T21:42:18.909Z,10.54
2023-04-18T21:45:23.177Z,10.52
2023-04-18T21:48:31.853Z,10.49
2023-04-18T21:51:45.998Z,10.47
2023-04-18T21:55:00.354Z,10.46
2023-04-18T21:58:08.970Z,10.47
2023-04-18T22:01:26.760Z,10.48
2023-04-18T22:04:36.713Z,10.50
2023-04-18T22:07:59.170Z,10.49
2023-04-18T22:11:13.839Z,10.46
2023-04-18T22:14:21.462Z,10.43
2023-04-18T22:17:44.598Z,10.43
2023-04-18T22:21:05.837Z,10.43
2023-04-18T22:24:33.565Z,10.43
2023-04-18T22:27:18.269Z,10.44
2023-04-18T22:30:30.460Z,10.43
2023-04-18T22:33:48.893Z,10.43
2023-04-18T22:36:58.767Z,10.44
2023-04-18T22:39:43.939Z,10.41
2023-04-18T22:43:13.057Z,10.39
2023-04-18T22:46:07.966Z,10.35
2023-04-18T22:49:27.514Z,10.31
2023-04-18T22:52:25.913Z,10.26
2023-04-18T22:55:20.892Z,10.22
2023-04-18T22:58:12.541Z,10.17
2023-04-18T23:01:20.243Z,10.13
2023-04-18T23:04:29.243Z,10.08
2023-04-18T23:07:32.004Z,10.04
2023-04-18T23:10:23.037Z,10.03
2023-04-18T23:13:25.104Z,10.02
2023-04-18T23:16:29.279Z,10.00
2023-04-18T23:19:26.269Z,9.99
2023-04-18T23:22:20.557Z,9.98
2023-04-18T23:25:20.377Z,9.95
2023-04-18T23:28:25.576Z,9.92
2023-04-18T23:31:33.024Z,9.89
2023-04-18T23:34:47.558Z,9.84
2023-04-18T23:37:47.900Z,9.80
2023-04-18T23:40:51.793Z,9.76
2023-04-18T23:43:58.367Z,9.72
2023-04-18T23:46:53.348Z,9.68
2023-04-18T23:50:05.830Z,9.64
2023-04-18T23:53:08.968Z,9.59
2023-04-18T23:56:06.957Z,9.54
2023-04-18T23:59:14.950Z,9.51
